sensor_id;sensor_type;location;lat;lon;timestamp;P1;durP1;ratioP1;P2;durP2;ratioP2
10248;SDS011;5169;50.560;9.714;2022-10-16T00:01:34;3.60;;;1.87;;
10248;SDS011;5169;50.560;9.714;2022-10-16T00:04:00;1.73;;;1.53;;
10248;SDS011;5169;50.560;9.714;2022-10-16T00:06:31;3.30;;;1.70;;
10248;SDS011;5169;50.560;9.714;2022-10-16T00:08:57;2.30;;;1.97;;
10248;SDS011;5169;50.560;9.714;2022-10-16T00:11:24;2.53;;;1.53;;
10248;SDS011;5169;50.560;9.714;2022-10-16T00:13:54;1.70;;;1.60;;
10248;SDS011;5169;50.560;9.714;2022-10-16T00:16:21;1.70;;;1.60;;
10248;SDS011;5169;50.560;9.714;2022-10-16T00:18:47;2.70;;;1.60;;
10248;SDS011;5169;50.560;9.714;2022-10-16T00:21:14;4.00;;;1.73;;
10248;SDS011;5169;50.560;9.714;2022-10-16T00:23:42;4.57;;;1.80;;
10248;SDS011;5169;50.560;9.714;2022-10-16T00:26:09;2.30;;;1.97;;
10248;SDS011;5169;50.560;9.714;2022-10-16T00:28:40;2.67;;;1.60;;
10248;SDS011;5169;50.560;9.714;2022-10-16T00:31:07;1.77;;;1.67;;
10248;SDS011;5169;50.560;9.714;2022-10-16T00:33:35;1.57;;;1.37;;
10248;SDS011;5169;50.560;9.714;2022-10-16T00:36:02;3.10;;;1.70;;
10248;SDS011;5169;50.560;9.714;2022-10-16T00:38:28;2.40;;;1.63;;
10248;SDS011;5169;50.560;9.714;2022-10-16T00:40:54;5.97;;;1.70;;
10248;SDS011;5169;50.560;9.714;2022-10-16T00:48:48;2.00;;;1.60;;
10248;SDS011;5169;50.560;9.714;2022-10-16T00:51:27;2.73;;;1.70;;
10248;SDS011;5169;50.560;9.714;2022-10-16T00:54:03;1.73;;;1.50;;
10248;SDS011;5169;50.560;9.714;2022-10-16T00:56:32;4.43;;;1.60;;
10248;SDS011;5169;50.560;9.714;2022-10-16T00:58:58;1.87;;;1.77;;
10248;SDS011;5169;50.560;9.714;2022-10-16T01:01:26;2.53;;;1.70;;
10248;SDS011;5169;50.560;9.714;2022-10-16T01:03:54;1.70;;;1.60;;
10248;SDS011;5169;50.560;9.714;2022-10-16T01:14:36;2.33;;;2.03;;
10248;SDS011;5169;50.560;9.714;2022-10-16T01:17:23;3.10;;;1.87;;
10248;SDS011;5169;50.560;9.714;2022-10-16T01:20:35;2.73;;;2.00;;
10248;SDS011;5169;50.560;9.714;2022-10-16T01:22:45;2.37;;;1.73;;
10248;SDS011;5169;50.560;9.714;2022-10-16T01:25:19;2.00;;;1.83;;
10248;SDS011;5169;50.560;9.714;2022-10-16T01:28:03;2.17;;;1.97;;
10248;SDS011;5169;50.560;9.714;2022-10-16T01:30:33;2.57;;;1.80;;
10248;SDS011;5169;50.560;9.714;2022-10-16T01:33:22;2.20;;;1.60;;
10248;SDS011;5169;50.560;9.714;2022-10-16T01:35:52;1.63;;;1.53;;
10248;SDS011;5169;50.560;9.714;2022-10-16T01:38:36;2.47;;;1.53;;
10248;SDS011;5169;50.560;9.714;2022-10-16T01:41:46;4.37;;;1.60;;
10248;SDS011;5169;50.560;9.714;2022-10-16T01:44:08;1.50;;;1.40;;
10248;SDS011;5169;50.560;9.714;2022-10-16T01:46:42;1.97;;;1.60;;
10248;SDS011;5169;50.560;9.714;2022-10-16T01:49:11;3.40;;;1.23;;
10248;SDS011;5169;50.560;9.714;2022-10-16T01:51:39;1.93;;;1.20;;
10248;SDS011;5169;50.560;9.714;2022-10-16T01:54:08;2.10;;;1.30;;
10248;SDS011;5169;50.560;9.714;2022-10-16T01:56:40;3.63;;;1.30;;
10248;SDS011;5169;50.560;9.714;2022-10-16T01:59:11;1.30;;;1.20;;
10248;SDS011;5169;50.560;9.714;2022-10-16T02:01:42;3.47;;;1.30;;
10248;SDS011;5169;50.560;9.714;2022-10-16T02:04:17;1.50;;;1.30;;
10248;SDS011;5169;50.560;9.714;2022-10-16T02:06:46;2.93;;;1.30;;
10248;SDS011;5169;50.560;9.714;2022-10-16T02:09:17;3.30;;;1.50;;
10248;SDS011;5169;50.560;9.714;2022-10-16T02:11:43;6.17;;;1.70;;
10248;SDS011;5169;50.560;9.714;2022-10-16T02:14:11;2.73;;;1.50;;
10248;SDS011;5169;50.560;9.714;2022-10-16T02:16:40;1.50;;;1.40;;
10248;SDS011;5169;50.560;9.714;2022-10-16T02:19:07;1.70;;;1.60;;
10248;SDS011;5169;50.560;9.714;2022-10-16T02:21:44;1.80;;;1.30;;
10248;SDS011;5169;50.560;9.714;2022-10-16T02:24:27;3.00;;;1.40;;
10248;SDS011;5169;50.560;9.714;2022-10-16T02:30:04;2.83;;;1.30;;
10248;SDS011;5169;50.560;9.714;2022-10-16T02:32:43;1.87;;;1.30;;
10248;SDS011;5169;50.560;9.714;2022-10-16T02:35:13;2.07;;;1.57;;
10248;SDS011;5169;50.560;9.714;2022-10-16T02:37:42;3.13;;;1.27;;
10248;SDS011;5169;50.560;9.714;2022-10-16T02:40:08;3.93;;;1.53;;
10248;SDS011;5169;50.560;9.714;2022-10-16T02:42:36;1.80;;;1.50;;
10248;SDS011;5169;50.560;9.714;2022-10-16T02:45:07;1.77;;;1.67;;
10248;SDS011;5169;50.560;9.714;2022-10-16T02:47:34;2.80;;;1.80;;
10248;SDS011;5169;50.560;9.714;2022-10-16T02:50:03;2.60;;;1.50;;
10248;SDS011;5169;50.560;9.714;2022-10-16T02:52:29;2.30;;;1.90;;
10248;SDS011;5169;50.560;9.714;2022-10-16T02:54:54;2.67;;;1.90;;
10248;SDS011;5169;50.560;9.714;2022-10-16T02:57:22;4.77;;;2.13;;
10248;SDS011;5169;50.560;9.714;2022-10-16T02:59:48;2.70;;;2.00;;
10248;SDS011;5169;50.560;9.714;2022-10-16T03:02:14;2.13;;;1.87;;
10248;SDS011;5169;50.560;9.714;2022-10-16T03:04:40;2.20;;;2.00;;
10248;SDS011;5169;50.560;9.714;2022-10-16T03:07:05;2.90;;;2.37;;
10248;SDS011;5169;50.560;9.714;2022-10-16T03:09:31;2.57;;;2.17;;
10248;SDS011;5169;50.560;9.714;2022-10-16T03:11:59;3.17;;;2.10;;
10248;SDS011;5169;50.560;9.714;2022-10-16T03:14:25;2.53;;;2.13;;
10248;SDS011;5169;50.560;9.714;2022-10-16T03:16:50;2.37;;;2.13;;
10248;SDS011;5169;50.560;9.714;2022-10-16T03:19:17;4.60;;;2.40;;
10248;SDS011;5169;50.560;9.714;2022-10-16T03:21:47;2.00;;;1.90;;
10248;SDS011;5169;50.560;9.714;2022-10-16T03:24:13;2.63;;;2.10;;
10248;SDS011;5169;50.560;9.714;2022-10-16T03:26:38;2.13;;;1.93;;
10248;SDS011;5169;50.560;9.714;2022-10-16T03:29:04;2.00;;;1.90;;
10248;SDS011;5169;50.560;9.714;2022-10-16T03:31:30;3.80;;;2.10;;
10248;SDS011;5169;50.560;9.714;2022-10-16T03:34:00;6.53;;;2.77;;
10248;SDS011;5169;50.560;9.714;2022-10-16T03:36:26;2.40;;;2.20;;
10248;SDS011;5169;50.560;9.714;2022-10-16T03:38:54;2.20;;;2.00;;
10248;SDS011;5169;50.560;9.714;2022-10-16T03:41:22;2.50;;;2.30;;
10248;SDS011;5169;50.560;9.714;2022-10-16T03:43:48;4.87;;;2.30;;
10248;SDS011;5169;50.560;9.714;2022-10-16T03:46:13;3.67;;;2.03;;
10248;SDS011;5169;50.560;9.714;2022-10-16T03:48:39;2.80;;;2.03;;
10248;SDS011;5169;50.560;9.714;2022-10-16T03:51:05;4.23;;;2.50;;
10248;SDS011;5169;50.560;9.714;2022-10-16T03:53:33;2.30;;;2.10;;
10248;SDS011;5169;50.560;9.714;2022-10-16T03:56:01;1.90;;;1.80;;
10248;SDS011;5169;50.560;9.714;2022-10-16T03:58:29;2.70;;;1.53;;
10248;SDS011;5169;50.560;9.714;2022-10-16T04:00:55;2.20;;;1.70;;
10248;SDS011;5169;50.560;9.714;2022-10-16T04:03:20;3.27;;;1.50;;
10248;SDS011;5169;50.560;9.714;2022-10-16T04:05:51;2.80;;;1.50;;
10248;SDS011;5169;50.560;9.714;2022-10-16T04:08:16;1.60;;;1.50;;
10248;SDS011;5169;50.560;9.714;2022-10-16T04:10:43;2.20;;;1.60;;
10248;SDS011;5169;50.560;9.714;2022-10-16T04:13:08;5.67;;;1.60;;
10248;SDS011;5169;50.560;9.714;2022-10-16T04:15:37;1.90;;;1.33;;
10248;SDS011;5169;50.560;9.714;2022-10-16T04:18:03;1.87;;;1.57;;
10248;SDS011;5169;50.560;9.714;2022-10-16T04:20:29;4.30;;;1.30;;
10248;SDS011;5169;50.560;9.714;2022-10-16T04:22:55;1.77;;;1.50;;
10248;SDS011;5169;50.560;9.714;2022-10-16T04:25:21;2.03;;;1.43;;
10248;SDS011;5169;50.560;9.714;2022-10-16T04:27:52;4.53;;;1.70;;
10248;SDS011;5169;50.560;9.714;2022-10-16T04:30:21;2.73;;;1.50;;
10248;SDS011;5169;50.560;9.714;2022-10-16T04:32:48;1.43;;;1.20;;
10248;SDS011;5169;50.560;9.714;2022-10-16T04:35:17;2.33;;;1.40;;
10248;SDS011;5169;50.560;9.714;2022-10-16T04:37:43;1.77;;;1.30;;
10248;SDS011;5169;50.560;9.714;2022-10-16T04:40:11;3.10;;;1.70;;
10248;SDS011;5169;50.560;9.714;2022-10-16T04:42:39;2.03;;;1.40;;
10248;SDS011;5169;50.560;9.714;2022-10-16T04:45:06;1.50;;;1.40;;
10248;SDS011;5169;50.560;9.714;2022-10-16T04:47:35;2.30;;;1.43;;
10248;SDS011;5169;50.560;9.714;2022-10-16T04:50:01;1.70;;;1.53;;
10248;SDS011;5169;50.560;9.714;2022-10-16T04:52:27;2.40;;;1.60;;
10248;SDS011;5169;50.560;9.714;2022-10-16T04:54:56;1.43;;;1.30;;
10248;SDS011;5169;50.560;9.714;2022-10-16T04:57:25;1.60;;;1.50;;
10248;SDS011;5169;50.560;9.714;2022-10-16T04:59:52;1.70;;;1.60;;
10248;SDS011;5169;50.560;9.714;2022-10-16T05:02:17;3.30;;;1.70;;
10248;SDS011;5169;50.560;9.714;2022-10-16T05:04:48;2.00;;;1.40;;
10248;SDS011;5169;50.560;9.714;2022-10-16T05:07:14;2.37;;;1.50;;
10248;SDS011;5169;50.560;9.714;2022-10-16T05:09:42;2.40;;;1.57;;
10248;SDS011;5169;50.560;9.714;2022-10-16T05:12:08;2.30;;;1.50;;
10248;SDS011;5169;50.560;9.714;2022-10-16T05:14:35;1.60;;;1.50;;
10248;SDS011;5169;50.560;9.714;2022-10-16T05:17:01;1.50;;;1.20;;
10248;SDS011;5169;50.560;9.714;2022-10-16T05:19:27;4.40;;;1.40;;
10248;SDS011;5169;50.560;9.714;2022-10-16T05:21:53;3.13;;;1.70;;
10248;SDS011;5169;50.560;9.714;2022-10-16T05:24:19;1.40;;;1.30;;
10248;SDS011;5169;50.560;9.714;2022-10-16T05:26:45;6.23;;;2.07;;
10248;SDS011;5169;50.560;9.714;2022-10-16T05:29:13;2.47;;;1.40;;
10248;SDS011;5169;50.560;9.714;2022-10-16T05:31:39;1.37;;;1.27;;
10248;SDS011;5169;50.560;9.714;2022-10-16T05:34:05;3.97;;;1.40;;
10248;SDS011;5169;50.560;9.714;2022-10-16T05:36:31;1.30;;;1.20;;
10248;SDS011;5169;50.560;9.714;2022-10-16T05:38:59;3.10;;;1.40;;
10248;SDS011;5169;50.560;9.714;2022-10-16T05:41:25;1.40;;;1.30;;
10248;SDS011;5169;50.560;9.714;2022-10-16T05:43:51;2.17;;;1.50;;
10248;SDS011;5169;50.560;9.714;2022-10-16T05:46:18;2.47;;;1.70;;
10248;SDS011;5169;50.560;9.714;2022-10-16T05:48:44;1.93;;;1.37;;
10248;SDS011;5169;50.560;9.714;2022-10-16T05:51:10;1.47;;;1.37;;
10248;SDS011;5169;50.560;9.714;2022-10-16T05:53:38;1.50;;;1.40;;
10248;SDS011;5169;50.560;9.714;2022-10-16T05:56:05;1.30;;;1.20;;
10248;SDS011;5169;50.560;9.714;2022-10-16T05:58:33;3.30;;;1.40;;
10248;SDS011;5169;50.560;9.714;2022-10-16T06:01:01;3.07;;;1.60;;
10248;SDS011;5169;50.560;9.714;2022-10-16T06:03:29;2.43;;;2.00;;
10248;SDS011;5169;50.560;9.714;2022-10-16T06:05:56;3.73;;;1.80;;
10248;SDS011;5169;50.560;9.714;2022-10-16T06:08:22;1.70;;;1.60;;
10248;SDS011;5169;50.560;9.714;2022-10-16T06:10:48;3.07;;;1.60;;
10248;SDS011;5169;50.560;9.714;2022-10-16T06:13:24;2.40;;;1.40;;
10248;SDS011;5169;50.560;9.714;2022-10-16T06:15:50;1.60;;;1.50;;
10248;SDS011;5169;50.560;9.714;2022-10-16T06:18:18;3.13;;;1.67;;
10248;SDS011;5169;50.560;9.714;2022-10-16T06:20:43;3.47;;;1.90;;
10248;SDS011;5169;50.560;9.714;2022-10-16T06:23:11;1.87;;;1.77;;
10248;SDS011;5169;50.560;9.714;2022-10-16T06:25:37;2.93;;;2.10;;
10248;SDS011;5169;50.560;9.714;2022-10-16T06:28:03;1.87;;;1.77;;
10248;SDS011;5169;50.560;9.714;2022-10-16T06:30:28;3.00;;;2.70;;
10248;SDS011;5169;50.560;9.714;2022-10-16T06:32:54;5.47;;;4.97;;
10248;SDS011;5169;50.560;9.714;2022-10-16T06:35:20;2.80;;;2.50;;
10248;SDS011;5169;50.560;9.714;2022-10-16T06:37:48;2.80;;;2.40;;
10248;SDS011;5169;50.560;9.714;2022-10-16T06:40:19;2.47;;;2.27;;
10248;SDS011;5169;50.560;9.714;2022-10-16T06:42:47;1.90;;;1.80;;
10248;SDS011;5169;50.560;9.714;2022-10-16T06:45:12;4.70;;;2.43;;
10248;SDS011;5169;50.560;9.714;2022-10-16T06:47:38;2.10;;;1.77;;
10248;SDS011;5169;50.560;9.714;2022-10-16T06:50:04;3.37;;;2.10;;
10248;SDS011;5169;50.560;9.714;2022-10-16T06:52:31;2.57;;;1.70;;
10248;SDS011;5169;50.560;9.714;2022-10-16T06:54:58;2.27;;;1.80;;
10248;SDS011;5169;50.560;9.714;2022-10-16T06:57:23;3.70;;;1.87;;
10248;SDS011;5169;50.560;9.714;2022-10-16T06:59:54;2.00;;;1.83;;
10248;SDS011;5169;50.560;9.714;2022-10-16T07:02:24;2.37;;;2.13;;
10248;SDS011;5169;50.560;9.714;2022-10-16T07:04:50;5.27;;;2.87;;
10248;SDS011;5169;50.560;9.714;2022-10-16T07:07:15;3.63;;;2.40;;
10248;SDS011;5169;50.560;9.714;2022-10-16T07:09:41;3.77;;;2.50;;
10248;SDS011;5169;50.560;9.714;2022-10-16T07:12:11;3.37;;;1.90;;
10248;SDS011;5169;50.560;9.714;2022-10-16T07:14:37;2.37;;;2.17;;
10248;SDS011;5169;50.560;9.714;2022-10-16T07:17:03;3.97;;;2.23;;
10248;SDS011;5169;50.560;9.714;2022-10-16T07:19:28;2.53;;;1.90;;
10248;SDS011;5169;50.560;9.714;2022-10-16T07:21:54;5.10;;;2.03;;
10248;SDS011;5169;50.560;9.714;2022-10-16T07:24:20;2.93;;;2.00;;
10248;SDS011;5169;50.560;9.714;2022-10-16T07:26:45;2.60;;;2.10;;
10248;SDS011;5169;50.560;9.714;2022-10-16T07:29:14;2.10;;;1.80;;
10248;SDS011;5169;50.560;9.714;2022-10-16T07:31:41;4.43;;;2.60;;
10248;SDS011;5169;50.560;9.714;2022-10-16T07:34:10;3.00;;;1.90;;
10248;SDS011;5169;50.560;9.714;2022-10-16T07:36:40;2.53;;;2.07;;
10248;SDS011;5169;50.560;9.714;2022-10-16T07:39:08;5.00;;;2.10;;
10248;SDS011;5169;50.560;9.714;2022-10-16T07:41:34;2.10;;;1.90;;
10248;SDS011;5169;50.560;9.714;2022-10-16T07:44:02;3.03;;;1.97;;
10248;SDS011;5169;50.560;9.714;2022-10-16T07:46:31;1.90;;;1.80;;
10248;SDS011;5169;50.560;9.714;2022-10-16T07:48:58;2.10;;;2.00;;
10248;SDS011;5169;50.560;9.714;2022-10-16T07:51:34;1.73;;;1.63;;
10248;SDS011;5169;50.560;9.714;2022-10-16T07:54:03;3.20;;;2.00;;
10248;SDS011;5169;50.560;9.714;2022-10-16T07:56:29;2.10;;;1.90;;
10248;SDS011;5169;50.560;9.714;2022-10-16T07:58:58;6.37;;;1.83;;
10248;SDS011;5169;50.560;9.714;2022-10-16T08:01:24;1.90;;;1.80;;
10248;SDS011;5169;50.560;9.714;2022-10-16T08:03:50;3.30;;;1.73;;
10248;SDS011;5169;50.560;9.714;2022-10-16T08:06:17;3.20;;;2.00;;
10248;SDS011;5169;50.560;9.714;2022-10-16T08:08:43;2.87;;;1.70;;
10248;SDS011;5169;50.560;9.714;2022-10-16T08:11:09;2.97;;;2.13;;
10248;SDS011;5169;50.560;9.714;2022-10-16T08:13:37;2.43;;;2.23;;
10248;SDS011;5169;50.560;9.714;2022-10-16T08:16:03;3.17;;;2.20;;
10248;SDS011;5169;50.560;9.714;2022-10-16T08:18:38;2.40;;;2.07;;
10248;SDS011;5169;50.560;9.714;2022-10-16T08:21:05;2.67;;;2.07;;
10248;SDS011;5169;50.560;9.714;2022-10-16T08:23:32;2.00;;;1.80;;
10248;SDS011;5169;50.560;9.714;2022-10-16T08:26:02;1.90;;;1.77;;
10248;SDS011;5169;50.560;9.714;2022-10-16T08:28:30;5.07;;;2.03;;
10248;SDS011;5169;50.560;9.714;2022-10-16T08:30:56;2.00;;;1.90;;
10248;SDS011;5169;50.560;9.714;2022-10-16T08:33:22;1.97;;;1.87;;
10248;SDS011;5169;50.560;9.714;2022-10-16T08:35:56;3.77;;;1.90;;
10248;SDS011;5169;50.560;9.714;2022-10-16T08:38:22;3.20;;;1.87;;
10248;SDS011;5169;50.560;9.714;2022-10-16T08:40:48;2.17;;;1.77;;
10248;SDS011;5169;50.560;9.714;2022-10-16T08:48:49;6.27;;;2.97;;
10248;SDS011;5169;50.560;9.714;2022-10-16T08:54:21;2.70;;;2.50;;
10248;SDS011;5169;50.560;9.714;2022-10-16T08:56:55;4.07;;;2.27;;
10248;SDS011;5169;50.560;9.714;2022-10-16T08:59:22;4.77;;;2.60;;
10248;SDS011;5169;50.560;9.714;2022-10-16T09:01:49;2.73;;;2.53;;
10248;SDS011;5169;50.560;9.714;2022-10-16T09:04:44;4.00;;;2.43;;
10248;SDS011;5169;50.560;9.714;2022-10-16T09:07:13;2.90;;;2.30;;
10248;SDS011;5169;50.560;9.714;2022-10-16T09:12:40;3.20;;;2.40;;
10248;SDS011;5169;50.560;9.714;2022-10-16T09:18:22;3.80;;;2.40;;
10248;SDS011;5169;50.560;9.714;2022-10-16T09:23:43;2.93;;;2.00;;
10248;SDS011;5169;50.560;9.714;2022-10-16T09:26:12;2.33;;;2.13;;
10248;SDS011;5169;50.560;9.714;2022-10-16T09:28:39;2.93;;;2.30;;
10248;SDS011;5169;50.560;9.714;2022-10-16T09:31:07;4.17;;;2.80;;
10248;SDS011;5169;50.560;9.714;2022-10-16T09:33:40;5.53;;;3.00;;
10248;SDS011;5169;50.560;9.714;2022-10-16T09:36:06;6.10;;;3.70;;
10248;SDS011;5169;50.560;9.714;2022-10-16T09:38:37;5.43;;;4.20;;
10248;SDS011;5169;50.560;9.714;2022-10-16T09:41:21;4.23;;;3.40;;
10248;SDS011;5169;50.560;9.714;2022-10-16T09:48:49;3.07;;;2.80;;
10248;SDS011;5169;50.560;9.714;2022-10-16T09:51:24;5.17;;;3.10;;
10248;SDS011;5169;50.560;9.714;2022-10-16T09:53:59;4.17;;;3.50;;
10248;SDS011;5169;50.560;9.714;2022-10-16T09:56:32;5.23;;;3.33;;
10248;SDS011;5169;50.560;9.714;2022-10-16T09:59:03;7.87;;;3.83;;
10248;SDS011;5169;50.560;9.714;2022-10-16T10:01:40;3.80;;;3.40;;
10248;SDS011;5169;50.560;9.714;2022-10-16T10:04:10;5.30;;;3.50;;
10248;SDS011;5169;50.560;9.714;2022-10-16T10:06:37;3.80;;;3.33;;
10248;SDS011;5169;50.560;9.714;2022-10-16T10:11:55;3.80;;;3.17;;
10248;SDS011;5169;50.560;9.714;2022-10-16T10:14:23;3.30;;;3.00;;
10248;SDS011;5169;50.560;9.714;2022-10-16T10:16:50;3.47;;;3.17;;
10248;SDS011;5169;50.560;9.714;2022-10-16T10:19:27;3.40;;;2.70;;
10248;SDS011;5169;50.560;9.714;2022-10-16T10:21:53;2.77;;;2.47;;
10248;SDS011;5169;50.560;9.714;2022-10-16T10:24:19;2.87;;;2.63;;
10248;SDS011;5169;50.560;9.714;2022-10-16T10:26:51;3.40;;;2.30;;
10248;SDS011;5169;50.560;9.714;2022-10-16T10:29:28;3.20;;;2.10;;
10248;SDS011;5169;50.560;9.714;2022-10-16T10:34:52;2.70;;;2.40;;
10248;SDS011;5169;50.560;9.714;2022-10-16T10:40:30;1.80;;;1.70;;
10248;SDS011;5169;50.560;9.714;2022-10-16T10:45:52;2.43;;;2.23;;
10248;SDS011;5169;50.560;9.714;2022-10-16T10:55:06;4.60;;;3.30;;
10248;SDS011;5169;50.560;9.714;2022-10-16T10:58:08;3.40;;;3.03;;
10248;SDS011;5169;50.560;9.714;2022-10-16T11:00:58;3.60;;;3.30;;
10248;SDS011;5169;50.560;9.714;2022-10-16T11:06:33;4.33;;;3.93;;
10248;SDS011;5169;50.560;9.714;2022-10-16T11:09:02;4.30;;;3.90;;
10248;SDS011;5169;50.560;9.714;2022-10-16T11:11:41;4.47;;;3.83;;
10248;SDS011;5169;50.560;9.714;2022-10-16T11:14:26;4.70;;;4.30;;
10248;SDS011;5169;50.560;9.714;2022-10-16T11:30:26;6.93;;;4.90;;
10248;SDS011;5169;50.560;9.714;2022-10-16T11:35:32;4.53;;;4.20;;
10248;SDS011;5169;50.560;9.714;2022-10-16T11:38:12;5.37;;;4.87;;
10248;SDS011;5169;50.560;9.714;2022-10-16T11:40:47;5.47;;;4.97;;
10248;SDS011;5169;50.560;9.714;2022-10-16T11:46:21;4.30;;;3.70;;
10248;SDS011;5169;50.560;9.714;2022-10-16T11:48:56;3.50;;;3.20;;
10248;SDS011;5169;50.560;9.714;2022-10-16T11:51:44;3.57;;;3.27;;
10248;SDS011;5169;50.560;9.714;2022-10-16T11:57:26;3.67;;;3.37;;
10248;SDS011;5169;50.560;9.714;2022-10-16T12:02:48;3.73;;;3.43;;
10248;SDS011;5169;50.560;9.714;2022-10-16T12:08:08;5.60;;;3.37;;
10248;SDS011;5169;50.560;9.714;2022-10-16T12:10:40;4.00;;;2.27;;
10248;SDS011;5169;50.560;9.714;2022-10-16T12:16:07;2.10;;;1.90;;
10248;SDS011;5169;50.560;9.714;2022-10-16T12:18:48;5.40;;;2.57;;
10248;SDS011;5169;50.560;9.714;2022-10-16T12:21:14;2.37;;;2.17;;
10248;SDS011;5169;50.560;9.714;2022-10-16T12:26:14;2.30;;;2.10;;
10248;SDS011;5169;50.560;9.714;2022-10-16T12:28:53;2.07;;;1.93;;
10248;SDS011;5169;50.560;9.714;2022-10-16T12:31:22;3.53;;;2.27;;
10248;SDS011;5169;50.560;9.714;2022-10-16T12:33:55;2.50;;;2.30;;
10248;SDS011;5169;50.560;9.714;2022-10-16T12:36:31;2.47;;;2.27;;
10248;SDS011;5169;50.560;9.714;2022-10-16T12:38:58;3.50;;;2.50;;
10248;SDS011;5169;50.560;9.714;2022-10-16T12:41:30;3.50;;;2.50;;
10248;SDS011;5169;50.560;9.714;2022-10-16T12:43:57;3.50;;;3.10;;
10248;SDS011;5169;50.560;9.714;2022-10-16T12:51:41;3.23;;;3.00;;
10248;SDS011;5169;50.560;9.714;2022-10-16T12:54:15;3.70;;;3.20;;
10248;SDS011;5169;50.560;9.714;2022-10-16T12:56:51;3.93;;;3.53;;
10248;SDS011;5169;50.560;9.714;2022-10-16T13:00:04;3.70;;;3.40;;
10248;SDS011;5169;50.560;9.714;2022-10-16T13:03:04;3.27;;;3.07;;
10248;SDS011;5169;50.560;9.714;2022-10-16T13:08:30;4.40;;;2.90;;
10248;SDS011;5169;50.560;9.714;2022-10-16T13:11:12;2.90;;;2.70;;
10248;SDS011;5169;50.560;9.714;2022-10-16T13:17:08;2.50;;;2.07;;
10248;SDS011;5169;50.560;9.714;2022-10-16T13:22:23;2.70;;;2.50;;
10248;SDS011;5169;50.560;9.714;2022-10-16T13:32:40;2.70;;;2.50;;
10248;SDS011;5169;50.560;9.714;2022-10-16T13:35:23;2.83;;;2.03;;
10248;SDS011;5169;50.560;9.714;2022-10-16T13:38:05;2.57;;;2.10;;
10248;SDS011;5169;50.560;9.714;2022-10-16T13:43:37;3.30;;;2.60;;
10248;SDS011;5169;50.560;9.714;2022-10-16T13:46:26;2.83;;;2.40;;
10248;SDS011;5169;50.560;9.714;2022-10-16T13:51:33;3.87;;;2.37;;
10248;SDS011;5169;50.560;9.714;2022-10-16T13:54:01;2.93;;;2.70;;
10248;SDS011;5169;50.560;9.714;2022-10-16T13:56:29;3.43;;;2.90;;
10248;SDS011;5169;50.560;9.714;2022-10-16T13:59:01;4.17;;;3.77;;
10248;SDS011;5169;50.560;9.714;2022-10-16T14:01:30;3.47;;;3.17;;
10248;SDS011;5169;50.560;9.714;2022-10-16T14:04:05;3.50;;;2.87;;
10248;SDS011;5169;50.560;9.714;2022-10-16T14:06:33;4.27;;;3.70;;
10248;SDS011;5169;50.560;9.714;2022-10-16T14:11:54;3.60;;;3.30;;
10248;SDS011;5169;50.560;9.714;2022-10-16T14:14:23;3.00;;;2.80;;
10248;SDS011;5169;50.560;9.714;2022-10-16T14:16:49;3.70;;;3.40;;
10248;SDS011;5169;50.560;9.714;2022-10-16T14:19:22;4.00;;;3.60;;
10248;SDS011;5169;50.560;9.714;2022-10-16T14:21:53;4.70;;;3.93;;
10248;SDS011;5169;50.560;9.714;2022-10-16T14:24:25;3.50;;;3.20;;
10248;SDS011;5169;50.560;9.714;2022-10-16T14:26:52;2.60;;;2.20;;
10248;SDS011;5169;50.560;9.714;2022-10-16T14:29:21;2.17;;;2.00;;
10248;SDS011;5169;50.560;9.714;2022-10-16T14:31:58;2.10;;;1.90;;
10248;SDS011;5169;50.560;9.714;2022-10-16T14:36:52;4.10;;;2.40;;
10248;SDS011;5169;50.560;9.714;2022-10-16T14:39:22;2.47;;;1.80;;
10248;SDS011;5169;50.560;9.714;2022-10-16T14:41:51;4.00;;;2.10;;
10248;SDS011;5169;50.560;9.714;2022-10-16T14:44:19;2.50;;;2.00;;
10248;SDS011;5169;50.560;9.714;2022-10-16T14:46:53;3.00;;;2.63;;
10248;SDS011;5169;50.560;9.714;2022-10-16T14:49:21;3.03;;;2.40;;
10248;SDS011;5169;50.560;9.714;2022-10-16T14:51:50;3.10;;;2.67;;
10248;SDS011;5169;50.560;9.714;2022-10-16T14:54:17;3.97;;;2.20;;
10248;SDS011;5169;50.560;9.714;2022-10-16T14:56:48;3.67;;;2.70;;
10248;SDS011;5169;50.560;9.714;2022-10-16T14:59:27;4.83;;;3.27;;
10248;SDS011;5169;50.560;9.714;2022-10-16T15:02:00;6.17;;;2.80;;
10248;SDS011;5169;50.560;9.714;2022-10-16T15:04:41;4.47;;;2.63;;
10248;SDS011;5169;50.560;9.714;2022-10-16T15:07:07;3.83;;;3.30;;
10248;SDS011;5169;50.560;9.714;2022-10-16T15:09:33;4.47;;;2.77;;
10248;SDS011;5169;50.560;9.714;2022-10-16T15:11:59;4.40;;;2.80;;
10248;SDS011;5169;50.560;9.714;2022-10-16T15:14:25;4.20;;;2.97;;
10248;SDS011;5169;50.560;9.714;2022-10-16T15:16:53;3.00;;;2.70;;
10248;SDS011;5169;50.560;9.714;2022-10-16T15:19:19;6.33;;;3.43;;
10248;SDS011;5169;50.560;9.714;2022-10-16T15:21:49;5.17;;;3.30;;
10248;SDS011;5169;50.560;9.714;2022-10-16T15:24:15;4.30;;;3.30;;
10248;SDS011;5169;50.560;9.714;2022-10-16T15:26:41;3.50;;;2.67;;
10248;SDS011;5169;50.560;9.714;2022-10-16T15:29:07;3.00;;;2.63;;
10248;SDS011;5169;50.560;9.714;2022-10-16T15:31:33;4.50;;;2.77;;
10248;SDS011;5169;50.560;9.714;2022-10-16T15:33:59;4.00;;;2.60;;
10248;SDS011;5169;50.560;9.714;2022-10-16T15:36:33;3.13;;;2.70;;
10248;SDS011;5169;50.560;9.714;2022-10-16T15:39:08;3.97;;;2.93;;
10248;SDS011;5169;50.560;9.714;2022-10-16T15:41:38;3.20;;;2.73;;
10248;SDS011;5169;50.560;9.714;2022-10-16T15:44:04;3.97;;;2.67;;
10248;SDS011;5169;50.560;9.714;2022-10-16T15:46:30;5.63;;;2.73;;
10248;SDS011;5169;50.560;9.714;2022-10-16T15:48:58;5.77;;;3.40;;
10248;SDS011;5169;50.560;9.714;2022-10-16T15:51:24;4.00;;;3.00;;
10248;SDS011;5169;50.560;9.714;2022-10-16T15:53:57;7.30;;;3.37;;
10248;SDS011;5169;50.560;9.714;2022-10-16T15:56:24;4.57;;;3.57;;
10248;SDS011;5169;50.560;9.714;2022-10-16T15:58:53;6.50;;;5.80;;
10248;SDS011;5169;50.560;9.714;2022-10-16T16:01:19;6.33;;;4.33;;
10248;SDS011;5169;50.560;9.714;2022-10-16T16:03:44;3.47;;;3.17;;
10248;SDS011;5169;50.560;9.714;2022-10-16T16:06:11;4.30;;;2.83;;
10248;SDS011;5169;50.560;9.714;2022-10-16T16:08:40;4.73;;;2.90;;
10248;SDS011;5169;50.560;9.714;2022-10-16T16:11:06;2.57;;;2.20;;
10248;SDS011;5169;50.560;9.714;2022-10-16T16:13:34;3.70;;;2.50;;
10248;SDS011;5169;50.560;9.714;2022-10-16T16:16:01;2.90;;;2.60;;
10248;SDS011;5169;50.560;9.714;2022-10-16T16:18:31;3.73;;;2.73;;
10248;SDS011;5169;50.560;9.714;2022-10-16T16:20:56;3.63;;;3.00;;
10248;SDS011;5169;50.560;9.714;2022-10-16T16:23:22;3.20;;;2.60;;
10248;SDS011;5169;50.560;9.714;2022-10-16T16:28:38;2.90;;;2.60;;
10248;SDS011;5169;50.560;9.714;2022-10-16T16:31:04;5.77;;;2.73;;
10248;SDS011;5169;50.560;9.714;2022-10-16T16:33:30;3.93;;;3.10;;
10248;SDS011;5169;50.560;9.714;2022-10-16T16:35:57;3.53;;;2.90;;
10248;SDS011;5169;50.560;9.714;2022-10-16T16:38:29;6.87;;;5.30;;
10248;SDS011;5169;50.560;9.714;2022-10-16T16:40:56;7.63;;;6.20;;
10248;SDS011;5169;50.560;9.714;2022-10-16T16:43:22;5.77;;;4.47;;
10248;SDS011;5169;50.560;9.714;2022-10-16T16:45:52;5.40;;;4.27;;
10248;SDS011;5169;50.560;9.714;2022-10-16T16:48:19;3.93;;;3.27;;
10248;SDS011;5169;50.560;9.714;2022-10-16T16:50:47;5.50;;;3.80;;
10248;SDS011;5169;50.560;9.714;2022-10-16T16:53:13;3.93;;;3.27;;
10248;SDS011;5169;50.560;9.714;2022-10-16T16:55:39;4.50;;;3.33;;
10248;SDS011;5169;50.560;9.714;2022-10-16T16:58:09;6.53;;;3.63;;
10248;SDS011;5169;50.560;9.714;2022-10-16T17:00:44;4.30;;;3.50;;
10248;SDS011;5169;50.560;9.714;2022-10-16T17:03:13;3.67;;;2.90;;
10248;SDS011;5169;50.560;9.714;2022-10-16T17:05:42;3.43;;;2.70;;
10248;SDS011;5169;50.560;9.714;2022-10-16T17:08:07;3.80;;;2.90;;
10248;SDS011;5169;50.560;9.714;2022-10-16T17:10:33;2.87;;;2.60;;
10248;SDS011;5169;50.560;9.714;2022-10-16T17:12:59;3.20;;;2.40;;
10248;SDS011;5169;50.560;9.714;2022-10-16T17:15:24;3.53;;;2.57;;
10248;SDS011;5169;50.560;9.714;2022-10-16T17:17:55;3.43;;;2.87;;
10248;SDS011;5169;50.560;9.714;2022-10-16T17:20:20;4.73;;;2.90;;
10248;SDS011;5169;50.560;9.714;2022-10-16T17:22:48;2.87;;;2.53;;
10248;SDS011;5169;50.560;9.714;2022-10-16T17:25:14;3.20;;;2.67;;